sensor_id;sensor_type;location;lat;lon;timestamp;temperature;humidity
74946;HTU21D;63509;45.250;38.102;2023-04-15T00:01:27;10.59;74.51
74946;HTU21D;63509;45.250;38.102;2023-04-15T00:03:54;10.58;74.54
74946;HTU21D;63509;45.250;38.102;2023-04-15T00:06:21;10.57;74.58
74946;HTU21D;63509;45.250;38.102;2023-04-15T00:08:47;10.55;74.58
74946;HTU21D;63509;45.250;38.102;2023-04-15T00:11:14;10.54;74.57
74946;HTU21D;63509;45.250;38.102;2023-04-15T00:13:40;10.53;74.63
74946;HTU21D;63509;45.250;38.102;2023-04-15T00:16:07;10.51;74.67
74946;HTU21D;63509;45.250;38.102;2023-04-15T00:18:34;10.49;74.68
74946;HTU21D;63509;45.250;38.102;2023-04-15T00:21:00;10.48;74.71
74946;HTU21D;63509;45.250;38.102;2023-04-15T00:23:27;10.44;74.74
74946;HTU21D;63509;45.250;38.102;2023-04-15T00:25:53;10.43;74.77
74946;HTU21D;63509;45.250;38.102;2023-04-15T00:28:19;10.43;74.80
74946;HTU21D;63509;45.250;38.102;2023-04-15T00:30:46;10.41;74.83
74946;HTU21D;63509;45.250;38.102;2023-04-15T00:33:13;10.40;74.87
74946;HTU21D;63509;45.250;38.102;2023-04-15T00:35:39;10.37;74.92
74946;HTU21D;63509;45.250;38.102;2023-04-15T00:38:05;10.36;75.00
74946;HTU21D;63509;45.250;38.102;2023-04-15T00:40:33;10.35;75.02
74946;HTU21D;63509;45.250;38.102;2023-04-15T00:43:00;10.34;75.01
74946;HTU21D;63509;45.250;38.102;2023-04-15T00:45:26;10.31;75.05
74946;HTU21D;63509;45.250;38.102;2023-04-15T00:47:54;10.31;75.09
74946;HTU21D;63509;45.250;38.102;2023-04-15T00:50:20;10.30;75.05
74946;HTU21D;63509;45.250;38.102;2023-04-15T00:52:47;10.29;75.04
74946;HTU21D;63509;45.250;38.102;2023-04-15T00:55:14;10.29;75.09
74946;HTU21D;63509;45.250;38.102;2023-04-15T00:57:40;10.28;75.04
74946;HTU21D;63509;45.250;38.102;2023-04-15T01:00:07;10.26;75.06
74946;HTU21D;63509;45.250;38.102;2023-04-15T01:02:34;10.25;75.09
74946;HTU21D;63509;45.250;38.102;2023-04-15T01:05:02;10.25;75.10
74946;HTU21D;63509;45.250;38.102;2023-04-15T01:07:32;10.26;75.10
74946;HTU21D;63509;45.250;38.102;2023-04-15T01:09:59;10.27;75.07
74946;HTU21D;63509;45.250;38.102;2023-04-15T01:12:26;10.24;75.00
74946;HTU21D;63509;45.250;38.102;2023-04-15T01:14:53;10.25;75.02
74946;HTU21D;63509;45.250;38.102;2023-04-15T01:17:20;10.23;74.95
74946;HTU21D;63509;45.250;38.102;2023-04-15T01:19:46;10.21;74.90
74946;HTU21D;63509;45.250;38.102;2023-04-15T01:22:12;10.21;74.91
74946;HTU21D;63509;45.250;38.102;2023-04-15T01:24:38;10.18;74.91
74946;HTU21D;63509;45.250;38.102;2023-04-15T01:27:04;10.15;74.87
74946;HTU21D;63509;45.250;38.102;2023-04-15T01:29:31;10.13;74.89
74946;HTU21D;63509;45.250;38.102;2023-04-15T01:31:58;10.12;74.86
74946;HTU21D;63509;45.250;38.102;2023-04-15T01:34:26;10.09;74.86
74946;HTU21D;63509;45.250;38.102;2023-04-15T01:36:53;10.07;74.85
74946;HTU21D;63509;45.250;38.102;2023-04-15T01:39:21;10.05;74.81
74946;HTU21D;63509;45.250;38.102;2023-04-15T01:41:48;10.00;74.80
74946;HTU21D;63509;45.250;38.102;2023-04-15T01:44:15;9.99;74.80
74946;HTU21D;63509;45.250;38.102;2023-04-15T01:46:41;9.99;74.78
74946;HTU21D;63509;45.250;38.102;2023-04-15T01:49:07;9.97;74.78
74946;HTU21D;63509;45.250;38.102;2023-04-15T01:51:34;9.94;74.80
74946;HTU21D;63509;45.250;38.102;2023-04-15T01:54:00;9.92;74.77
74946;HTU21D;63509;45.250;38.102;2023-04-15T01:56:26;9.91;74.75
74946;HTU21D;63509;45.250;38.102;2023-04-15T01:58:52;9.86;74.73
74946;HTU21D;63509;45.250;38.102;2023-04-15T02:01:18;9.84;74.71
74946;HTU21D;63509;45.250;38.102;2023-04-15T02:03:45;9.82;74.72
74946;HTU21D;63509;45.250;38.102;2023-04-15T02:06:14;9.78;74.76
74946;HTU21D;63509;45.250;38.102;2023-04-15T02:08:40;9.75;74.77
74946;HTU21D;63509;45.250;38.102;2023-04-15T02:11:06;9.71;74.80
74946;HTU21D;63509;45.250;38.102;2023-04-15T02:13:33;9.70;74.76
74946;HTU21D;63509;45.250;38.102;2023-04-15T02:15:59;9.66;74.76
74946;HTU21D;63509;45.250;38.102;2023-04-15T02:18:25;9.64;74.81
74946;HTU21D;63509;45.250;38.102;2023-04-15T02:20:51;9.60;74.82
74946;HTU21D;63509;45.250;38.102;2023-04-15T02:23:17;9.55;74.84
74946;HTU21D;63509;45.250;38.102;2023-04-15T02:25:44;9.52;74.85
74946;HTU21D;63509;45.250;38.102;2023-04-15T02:28:10;9.50;74.83
74946;HTU21D;63509;45.250;38.102;2023-04-15T02:30:36;9.48;74.86
74946;HTU21D;63509;45.250;38.102;2023-04-15T02:33:04;9.47;74.87
74946;HTU21D;63509;45.250;38.102;2023-04-15T02:35:30;9.46;74.89
74946;HTU21D;63509;45.250;38.102;2023-04-15T02:37:57;9.44;74.88
74946;HTU21D;63509;45.250;38.102;2023-04-15T02:40:23;9.41;74.86
74946;HTU21D;63509;45.250;38.102;2023-04-15T02:42:49;9.38;74.86
74946;HTU21D;63509;45.250;38.102;2023-04-15T02:45:17;9.36;74.91
74946;HTU21D;63509;45.250;38.102;2023-04-15T02:47:45;9.32;74.93
74946;HTU21D;63509;45.250;38.102;2023-04-15T02:50:12;9.30;74.96
74946;HTU21D;63509;45.250;38.102;2023-04-15T02:52:41;9.29;74.96
74946;HTU21D;63509;45.250;38.102;2023-04-15T02:55:09;9.26;74.94
74946;HTU21D;63509;45.250;38.102;2023-04-15T02:57:36;9.23;74.96
74946;HTU21D;63509;45.250;38.102;2023-04-15T03:00:06;9.20;75.02
74946;HTU21D;63509;45.250;38.102;2023-04-15T03:02:39;9.17;75.08
74946;HTU21D;63509;45.250;38.102;2023-04-15T03:05:10;9.15;75.13
74946;HTU21D;63509;45.250;38.102;2023-04-15T03:07:38;9.12;75.19
74946;HTU21D;63509;45.250;38.102;2023-04-15T03:10:07;9.10;75.25
74946;HTU21D;63509;45.250;38.102;2023-04-15T03:12:33;9.09;75.28
74946;HTU21D;63509;45.250;38.102;2023-04-15T03:15:00;9.09;75.36
74946;HTU21D;63509;45.250;38.102;2023-04-15T03:17:33;9.07;75.41
74946;HTU21D;63509;45.250;38.102;2023-04-15T03:20:01;9.08;75.52
74946;HTU21D;63509;45.250;38.102;2023-04-15T03:22:28;9.10;75.57
74946;HTU21D;63509;45.250;38.102;2023-04-15T03:24:54;9.10;75.62
74946;HTU21D;63509;45.250;38.102;2023-04-15T03:27:20;9.14;75.67
74946;HTU21D;63509;45.250;38.102;2023-04-15T03:29:47;9.18;75.75
74946;HTU21D;63509;45.250;38.102;2023-04-15T03:32:15;9.20;75.82
74946;HTU21D;63509;45.250;38.102;2023-04-15T03:34:41;9.24;75.88
74946;HTU21D;63509;45.250;38.102;2023-04-15T03:37:07;9.29;75.96
74946;HTU21D;63509;45.250;38.102;2023-04-15T03:39:34;9.32;76.01
74946;HTU21D;63509;45.250;38.102;2023-04-15T03:42:00;9.36;76.08
74946;HTU21D;63509;45.250;38.102;2023-04-15T03:44:26;9.40;76.12
74946;HTU21D;63509;45.250;38.102;2023-04-15T03:46:53;9.45;76.23
74946;HTU21D;63509;45.250;38.102;2023-04-15T03:49:19;9.49;76.28
74946;HTU21D;63509;45.250;38.102;2023-04-15T03:51:47;9.55;76.32
74946;HTU21D;63509;45.250;38.102;2023-04-15T03:54:13;9.61;76.41
74946;HTU21D;63509;45.250;38.102;2023-04-15T03:56:40;9.64;76.45
74946;HTU21D;63509;45.250;38.102;2023-04-15T03:59:06;9.71;76.49
74946;HTU21D;63509;45.250;38.102;2023-04-15T04:01:32;9.76;76.52
74946;HTU21D;63509;45.250;38.102;2023-04-15T04:03:58;9.80;76.56
74946;HTU21D;63509;45.250;38.102;2023-04-15T04:06:25;9.85;76.66
74946;HTU21D;63509;45.250;38.102;2023-04-15T04:08:51;9.91;76.73
74946;HTU21D;63509;45.250;38.102;2023-04-15T04:11:17;9.97;76.86
74946;HTU21D;63509;45.250;38.102;2023-04-15T04:13:43;10.05;76.93
74946;HTU21D;63509;45.250;38.102;2023-04-15T04:16:09;10.11;76.98
74946;HTU21D;63509;45.250;38.102;2023-04-15T04:18:36;10.20;77.08
74946;HTU21D;63509;45.250;38.102;2023-04-15T04:21:02;10.28;76.99
74946;HTU21D;63509;45.250;38.102;2023-04-15T04:23:28;10.36;76.98
74946;HTU21D;63509;45.250;38.102;2023-04-15T04:25:54;10.45;76.92
74946;HTU21D;63509;45.250;38.102;2023-04-15T04:28:21;10.53;76.98
74946;HTU21D;63509;45.250;38.102;2023-04-15T04:30:47;10.64;77.02
74946;HTU21D;63509;45.250;38.102;2023-04-15T04:33:13;10.74;76.98
74946;HTU21D;63509;45.250;38.102;2023-04-15T04:35:39;10.83;77.17
74946;HTU21D;63509;45.250;38.102;2023-04-15T04:38:06;10.96;77.20
74946;HTU21D;63509;45.250;38.102;2023-04-15T04:40:32;11.05;77.71
74946;HTU21D;63509;45.250;38.102;2023-04-15T04:42:59;11.17;78.34
74946;HTU21D;63509;45.250;38.102;2023-04-15T04:45:25;11.34;78.90
74946;HTU21D;63509;45.250;38.102;2023-04-15T04:47:52;11.51;78.90
74946;HTU21D;63509;45.250;38.102;2023-04-15T04:50:18;11.69;79.38
74946;HTU21D;63509;45.250;38.102;2023-04-15T04:52:44;11.87;78.88
74946;HTU21D;63509;45.250;38.102;2023-04-15T04:55:11;12.07;79.25
74946;HTU21D;63509;45.250;38.102;2023-04-15T04:57:37;12.29;79.33
74946;HTU21D;63509;45.250;38.102;2023-04-15T05:00:07;12.51;79.85
74946;HTU21D;63509;45.250;38.102;2023-04-15T05:02:33;12.75;80.39
74946;HTU21D;63509;45.250;38.102;2023-04-15T05:05:00;12.99;80.39
74946;HTU21D;63509;45.250;38.102;2023-04-15T05:07:26;13.23;79.98
74946;HTU21D;63509;45.250;38.102;2023-04-15T05:09:52;13.46;80.07
74946;HTU21D;63509;45.250;38.102;2023-04-15T05:12:18;13.70;79.51
74946;HTU21D;63509;45.250;38.102;2023-04-15T05:14:44;13.93;79.11
74946;HTU21D;63509;45.250;38.102;2023-04-15T05:17:11;14.20;79.43
74946;HTU21D;63509;45.250;38.102;2023-04-15T05:19:37;14.49;79.40
74946;HTU21D;63509;45.250;38.102;2023-04-15T05:22:03;14.77;78.83
74946;HTU21D;63509;45.250;38.102;2023-04-15T05:24:29;15.04;78.19
74946;HTU21D;63509;45.250;38.102;2023-04-15T05:26:55;15.30;77.68
74946;HTU21D;63509;45.250;38.102;2023-04-15T05:29:21;15.58;77.42
74946;HTU21D;63509;45.250;38.102;2023-04-15T05:31:47;15.77;75.91
74946;HTU21D;63509;45.250;38.102;2023-04-15T05:34:13;15.98;76.05
74946;HTU21D;63509;45.250;38.102;2023-04-15T05:36:41;16.21;76.00
74946;HTU21D;63509;45.250;38.102;2023-04-15T05:39:07;16.49;75.61
74946;HTU21D;63509;45.250;38.102;2023-04-15T05:41:34;16.73;74.51
74946;HTU21D;63509;45.250;38.102;2023-04-15T05:44:00;16.92;73.69
74946;HTU21D;63509;45.250;38.102;2023-04-15T05:46:27;17.13;73.53
74946;HTU21D;63509;45.250;38.102;2023-04-15T05:48:53;17.32;72.82
74946;HTU21D;63509;45.250;38.102;2023-04-15T05:51:19;17.50;71.87
74946;HTU21D;63509;45.250;38.102;2023-04-15T05:53:45;17.64;71.19
74946;HTU21D;63509;45.250;38.102;2023-04-15T05:56:11;17.76;70.59
74946;HTU21D;63509;45.250;38.102;2023-04-15T05:58:37;17.88;70.05
74946;HTU21D;63509;45.250;38.102;2023-04-15T06:01:03;18.02;69.16
74946;HTU21D;63509;45.250;38.102;2023-04-15T06:03:29;18.14;68.91
74946;HTU21D;63509;45.250;38.102;2023-04-15T06:05:55;18.27;68.27
74946;HTU21D;63509;45.250;38.102;2023-04-15T06:08:21;18.41;68.23
74946;HTU21D;63509;45.250;38.102;2023-04-15T06:10:47;18.57;67.22
74946;HTU21D;63509;45.250;38.102;2023-04-15T06:13:13;18.65;66.70
74946;HTU21D;63509;45.250;38.102;2023-04-15T06:15:40;18.73;66.24
74946;HTU21D;63509;45.250;38.102;2023-04-15T06:18:06;18.88;66.23
74946;HTU21D;63509;45.250;38.102;2023-04-15T06:20:33;19.06;65.72
74946;HTU21D;63509;45.250;38.102;2023-04-15T06:22:59;19.26;64.94
74946;HTU21D;63509;45.250;38.102;2023-04-15T06:25:25;19.38;65.21
74946;HTU21D;63509;45.250;38.102;2023-04-15T06:27:51;19.54;64.37
74946;HTU21D;63509;45.250;38.102;2023-04-15T06:30:17;19.68;64.27
74946;HTU21D;63509;45.250;38.102;2023-04-15T06:32:43;19.85;62.70
74946;HTU21D;63509;45.250;38.102;2023-04-15T06:35:09;19.89;61.96
74946;HTU21D;63509;45.250;38.102;2023-04-15T06:37:36;19.97;62.17
74946;HTU21D;63509;45.250;38.102;2023-04-15T06:40:02;20.06;62.47
74946;HTU21D;63509;45.250;38.102;2023-04-15T06:42:29;20.21;61.73
74946;HTU21D;63509;45.250;38.102;2023-04-15T06:44:56;20.36;61.40
74946;HTU21D;63509;45.250;38.102;2023-04-15T06:47:22;20.47;60.31
74946;HTU21D;63509;45.250;38.102;2023-04-15T06:49:48;20.49;59.80
74946;HTU21D;63509;45.250;38.102;2023-04-15T06:52:14;20.54;59.40
74946;HTU21D;63509;45.250;38.102;2023-04-15T06:54:41;20.65;59.37
74946;HTU21D;63509;45.250;38.102;2023-04-15T06:57:08;20.76;58.80
74946;HTU21D;63509;45.250;38.102;2023-04-15T06:59:34;20.88;59.04
74946;HTU21D;63509;45.250;38.102;2023-04-15T07:02:00;21.08;59.15
74946;HTU21D;63509;45.250;38.102;2023-04-15T07:04:26;21.29;58.75
74946;HTU21D;63509;45.250;38.102;2023-04-15T07:06:53;21.53;58.46
74946;HTU21D;63509;45.250;38.102;2023-04-15T07:09:23;21.83;58.30
74946;HTU21D;63509;45.250;38.102;2023-04-15T07:11:49;22.10;57.43
74946;HTU21D;63509;45.250;38.102;2023-04-15T07:14:17;22.27;56.13
74946;HTU21D;63509;45.250;38.102;2023-04-15T07:16:43;22.33;56.14
74946;HTU21D;63509;45.250;38.102;2023-04-15T07:19:09;22.40;56.10
74946;HTU21D;63509;45.250;38.102;2023-04-15T07:21:35;22.50;55.78
74946;HTU21D;63509;45.250;38.102;2023-04-15T07:24:01;22.58;55.14
74946;HTU21D;63509;45.250;38.102;2023-04-15T07:26:27;22.67;55.00
74946;HTU21D;63509;45.250;38.102;2023-04-15T07:28:53;22.81;55.13
74946;HTU21D;63509;45.250;38.102;2023-04-15T07:31:19;23.00;54.28
74946;HTU21D;63509;45.250;38.102;2023-04-15T07:33:45;23.25;54.17
74946;HTU21D;63509;45.250;38.102;2023-04-15T07:36:11;23.45;53.31
74946;HTU21D;63509;45.250;38.102;2023-04-15T07:38:38;23.59;52.43
74946;HTU21D;63509;45.250;38.102;2023-04-15T07:41:04;23.70;52.49
74946;HTU21D;63509;45.250;38.102;2023-04-15T07:43:30;23.81;52.43
74946;HTU21D;63509;45.250;38.102;2023-04-15T07:45:56;23.92;52.17
74946;HTU21D;63509;45.250;38.102;2023-04-15T07:48:22;24.08;51.58
74946;HTU21D;63509;45.250;38.102;2023-04-15T07:50:48;24.20;50.97
74946;HTU21D;63509;45.250;38.102;2023-04-15T07:53:14;24.29;50.90
74946;HTU21D;63509;45.250;38.102;2023-04-15T07:55:40;24.43;50.78
74946;HTU21D;63509;45.250;38.102;2023-04-15T07:58:07;24.60;50.72
74946;HTU21D;63509;45.250;38.102;2023-04-15T08:00:33;24.79;50.12
74946;HTU21D;63509;45.250;38.102;2023-04-15T08:02:59;24.91;49.37
74946;HTU21D;63509;45.250;38.102;2023-04-15T08:05:25;25.01;48.92
74946;HTU21D;63509;45.250;38.102;2023-04-15T08:07:52;25.09;48.48
74946;HTU21D;63509;45.250;38.102;2023-04-15T08:10:18;25.13;48.21
74946;HTU21D;63509;45.250;38.102;2023-04-15T08:12:44;25.18;48.18
74946;HTU21D;63509;45.250;38.102;2023-04-15T08:15:14;25.28;47.66
74946;HTU21D;63509;45.250;38.102;2023-04-15T08:17:41;25.43;47.56
74946;HTU21D;63509;45.250;38.102;2023-04-15T08:20:07;25.52;45.83
74946;HTU21D;63509;45.250;38.102;2023-04-15T08:22:34;25.49;45.87
74946;HTU21D;63509;45.250;38.102;2023-04-15T08:25:00;25.60;46.07
74946;HTU21D;63509;45.250;38.102;2023-04-15T08:27:26;25.65;46.15
74946;HTU21D;63509;45.250;38.102;2023-04-15T08:29:52;25.73;45.24
74946;HTU21D;63509;45.250;38.102;2023-04-15T08:32:18;25.74;45.12
74946;HTU21D;63509;45.250;38.102;2023-04-15T08:34:44;25.77;44.89
74946;HTU21D;63509;45.250;38.102;2023-04-15T08:37:11;25.86;44.87
74946;HTU21D;63509;45.250;38.102;2023-04-15T08:39:37;25.94;44.71
74946;HTU21D;63509;45.250;38.102;2023-04-15T08:42:07;26.05;44.49
74946;HTU21D;63509;45.250;38.102;2023-04-15T08:44:36;26.10;43.87
74946;HTU21D;63509;45.250;38.102;2023-04-15T08:47:06;26.06;43.64
74946;HTU21D;63509;45.250;38.102;2023-04-15T08:49:35;25.99;43.81
74946;HTU21D;63509;45.250;38.102;2023-04-15T08:52:04;26.08;43.85
74946;HTU21D;63509;45.250;38.102;2023-04-15T08:54:31;26.19;43.77
74946;HTU21D;63509;45.250;38.102;2023-04-15T08:56:58;26.33;43.26
74946;HTU21D;63509;45.250;38.102;2023-04-15T08:59:24;26.40;42.99
74946;HTU21D;63509;45.250;38.102;2023-04-15T09:01:51;26.43;42.60
74946;HTU21D;63509;45.250;38.102;2023-04-15T09:04:17;26.48;42.66
74946;HTU21D;63509;45.250;38.102;2023-04-15T09:06:44;26.61;42.68
74946;HTU21D;63509;45.250;38.102;2023-04-15T09:09:11;26.72;42.56
74946;HTU21D;63509;45.250;38.102;2023-04-15T09:11:39;26.76;42.55
74946;HTU21D;63509;45.250;38.102;2023-04-15T09:14:05;26.81;41.16
74946;HTU21D;63509;45.250;38.102;2023-04-15T09:16:51;26.72;40.81
74946;HTU21D;63509;45.250;38.102;2023-04-15T09:19:22;26.53;41.72
74946;HTU21D;63509;45.250;38.102;2023-04-15T09:21:50;26.42;41.56
74946;HTU21D;63509;45.250;38.102;2023-04-15T09:24:17;26.49;41.87
74946;HTU21D;63509;45.250;38.102;2023-04-15T09:26:43;26.71;41.23
74946;HTU21D;63509;45.250;38.102;2023-04-15T09:29:11;26.93;41.26
74946;HTU21D;63509;45.250;38.102;2023-04-15T09:31:40;27.11;41.10
74946;HTU21D;63509;45.250;38.102;2023-04-15T09:34:08;27.25;40.75
74946;HTU21D;63509;45.250;38.102;2023-04-15T09:37:04;27.37;41.87
74946;HTU21D;63509;45.250;38.102;2023-04-15T09:39:50;27.25;41.55
74946;HTU21D;63509;45.250;38.102;2023-04-15T09:42:16;27.04;40.12
74946;HTU21D;63509;45.250;38.102;2023-04-15T09:44:50;26.76;41.31
74946;HTU21D;63509;45.250;38.102;2023-04-15T09:47:27;26.57;42.13
74946;HTU21D;63509;45.250;38.102;2023-04-15T09:49:58;26.31;42.08
74946;HTU21D;63509;45.250;38.102;2023-04-15T09:52:24;26.10;42.27
74946;HTU21D;63509;45.250;38.102;2023-04-15T09:54:53;25.87;42.49
74946;HTU21D;63509;45.250;38.102;2023-04-15T09:57:21;25.63;43.16
74946;HTU21D;63509;45.250;38.102;2023-04-15T09:59:49;25.54;43.16
74946;HTU21D;63509;45.250;38.102;2023-04-15T10:02:17;25.56;43.87
74946;HTU21D;63509;45.250;38.102;2023-04-15T10:04:44;25.59;42.97
74946;HTU21D;63509;45.250;38.102;2023-04-15T10:07:11;25.52;43.10
74946;HTU21D;63509;45.250;38.102;2023-04-15T10:09:38;25.49;43.08
74946;HTU21D;63509;45.250;38.102;2023-04-15T10:12:04;25.38;43.82
74946;HTU21D;63509;45.250;38.102;2023-04-15T10:14:33;25.47;43.86
74946;HTU21D;63509;45.250;38.102;2023-04-15T10:17:04;25.68;44.02
74946;HTU21D;63509;45.250;38.102;2023-04-15T10:19:32;25.91;43.58
74946;HTU21D;63509;45.250;38.102;2023-04-15T10:22:01;26.11;43.39
74946;HTU21D;63509;45.250;38.102;2023-04-15T10:24:30;26.36;42.85
74946;HTU21D;63509;45.250;38.102;2023-04-15T10:26:58;26.54;42.51
74946;HTU21D;63509;45.250;38.102;2023-04-15T10:29:25;26.71;41.90
74946;HTU21D;63509;45.250;38.102;2023-04-15T10:31:58;26.82;42.16
74946;HTU21D;63509;45.250;38.102;2023-04-15T10:34:25;26.82;41.52
74946;HTU21D;63509;45.250;38.102;2023-04-15T10:37:00;26.82;41.97
74946;HTU21D;63509;45.250;38.102;2023-04-15T10:42:09;26.70;42.05
74946;HTU21D;63509;45.250;38.102;2023-04-15T10:44:38;26.76;41.21
74946;HTU21D;63509;45.250;38.102;2023-04-15T10:47:15;26.76;41.51
74946;HTU21D;63509;45.250;38.102;2023-04-15T10:49:45;26.60;41.43
74946;HTU21D;63509;45.250;38.102;2023-04-15T10:52:14;26.47;41.42
74946;HTU21D;63509;45.250;38.102;2023-04-15T10:54:41;26.37;41.78
74946;HTU21D;63509;45.250;38.102;2023-04-15T10:57:13;26.31;42.49
74946;HTU21D;63509;45.250;38.102;2023-04-15T11:00:01;26.31;42.64
74946;HTU21D;63509;45.250;38.102;2023-04-15T11:02:43;26.26;42.81
74946;HTU21D;63509;45.250;38.102;2023-04-15T11:05:10;26.20;42.28
74946;HTU21D;63509;45.250;38.102;2023-04-15T11:12:57;25.66;42.10
74946;HTU21D;63509;45.250;38.102;2023-04-15T11:15:35;25.35;42.70
74946;HTU21D;63509;45.250;38.102;2023-04-15T11:18:20;25.17;43.42
74946;HTU21D;63509;45.250;38.102;2023-04-15T11:20:55;25.05;43.61
74946;HTU21D;63509;45.250;38.102;2023-04-15T11:23:31;24.86;43.99
74946;HTU21D;63509;45.250;38.102;2023-04-15T11:25:58;24.78;44.29
74946;HTU21D;63509;45.250;38.102;2023-04-15T11:28:29;24.77;44.49
74946;HTU21D;63509;45.250;38.102;2023-04-15T11:30:55;24.70;44.17
74946;HTU21D;63509;45.250;38.102;2023-04-15T11:33:23;24.47;44.25
74946;HTU21D;63509;45.250;38.102;2023-04-15T11:35:51;24.28;45.04
74946;HTU21D;63509;45.250;38.102;2023-04-15T11:38:18;24.14;45.61
74946;HTU21D;63509;45.250;38.102;2023-04-15T11:40:45;24.03;45.70
74946;HTU21D;63509;45.250;38.102;2023-04-15T11:43:16;23.95;45.80
74946;HTU21D;63509;45.250;38.102;2023-04-15T11:45:55;23.96;46.08
74946;HTU21D;63509;45.250;38.102;2023-04-15T11:48:23;23.97;46.14
74946;HTU21D;63509;45.250;38.102;2023-04-15T11:51:00;23.92;46.29
74946;HTU21D;63509;45.250;38.102;2023-04-15T11:56:02;23.82;46.28
74946;HTU21D;63509;45.250;38.102;2023-04-15T11:58:28;23.55;46.70
74946;HTU21D;63509;45.250;38.102;2023-04-15T12:00:57;23.26;47.13
74946;HTU21D;63509;45.250;38.102;2023-04-15T12:03:27;23.02;48.08
74946;HTU21D;63509;45.250;38.102;2023-04-15T12:14:18;22.44;48.55
74946;HTU21D;63509;45.250;38.102;2023-04-15T12:16:46;22.28;49.17
74946;HTU21D;63509;45.250;38.102;2023-04-15T12:19:15;22.14;48.91
74946;HTU21D;63509;45.250;38.102;2023-04-15T12:21:46;21.83;49.41
74946;HTU21D;63509;45.250;38.102;2023-04-15T12:24:14;21.61;50.07
74946;HTU21D;63509;45.250;38.102;2023-04-15T12:26:48;21.45;50.51
74946;HTU21D;63509;45.250;38.102;2023-04-15T12:29:16;21.33;50.56
74946;HTU21D;63509;45.250;38.102;2023-04-15T12:31:49;21.15;50.98
74946;HTU21D;63509;45.250;38.102;2023-04-15T12:34:24;20.96;51.46
74946;HTU21D;63509;45.250;38.102;2023-04-15T12:36:51;20.89;51.39
74946;HTU21D;63509;45.250;38.102;2023-04-15T12:39:21;20.81;51.31
74946;HTU21D;63509;45.250;38.102;2023-04-15T12:41:48;20.61;51.56
74946;HTU21D;63509;45.250;38.102;2023-04-15T12:44:14;20.44;52.33
74946;HTU21D;63509;45.250;38.102;2023-04-15T12:46:40;20.32;52.30
74946;HTU21D;63509;45.250;38.102;2023-04-15T12:49:06;20.17;52.68
74946;HTU21D;63509;45.250;38.102;2023-04-15T12:51:32;20.14;52.94
74946;HTU21D;63509;45.250;38.102;2023-04-15T12:53:58;20.12;52.94
74946;HTU21D;63509;45.250;38.102;2023-04-15T12:56:24;20.06;52.97
74946;HTU21D;63509;45.250;38.102;2023-04-15T12:58:51;19.98;53.05
74946;HTU21D;63509;45.250;38.102;2023-04-15T13:01:17;19.82;53.17
74946;HTU21D;63509;45.250;38.102;2023-04-15T13:03:44;19.63;53.56
74946;HTU21D;63509;45.250;38.102;2023-04-15T13:06:10;19.51;53.81
74946;HTU21D;63509;45.250;38.102;2023-04-15T13:08:36;19.39;54.22
74946;HTU21D;63509;45.250;38.102;2023-04-15T13:11:02;19.24;54.37
74946;HTU21D;63509;45.250;38.102;2023-04-15T13:13:28;19.15;54.59
74946;HTU21D;63509;45.250;38.102;2023-04-15T13:15:57;19.06;54.70
74946;HTU21D;63509;45.250;38.102;2023-04-15T13:18:23;18.99;54.93
74946;HTU21D;63509;45.250;38.102;2023-04-15T13:20:50;18.84;55.20
74946;HTU21D;63509;45.250;38.102;2023-04-15T13:23:16;18.66;55.44
74946;HTU21D;63509;45.250;38.102;2023-04-15T13:25:42;18.49;55.79
74946;HTU21D;63509;45.250;38.102;2023-04-15T13:28:10;18.39;56.15
74946;HTU21D;63509;45.250;38.102;2023-04-15T13:30:37;18.35;56.32
74946;HTU21D;63509;45.250;38.102;2023-04-15T13:33:04;18.29;56.36
74946;HTU21D;63509;45.250;38.102;2023-04-15T13:35:31;18.25;56.33
74946;HTU21D;63509;45.250;38.102;2023-04-15T13:37:57;18.15;56.58
74946;HTU21D;63509;45.250;38.102;2023-04-15T13:40:23;18.06;56.57
74946;HTU21D;63509;45.250;38.102;2023-04-15T13:42:50;17.95;56.94
74946;HTU21D;63509;45.250;38.102;2023-04-15T13:45:17;17.88;56.93
74946;HTU21D;63509;45.250;38.102;2023-04-15T13:47:44;17.74;57.19
74946;HTU21D;63509;45.250;38.102;2023-04-15T13:50:10;17.65;57.43
74946;HTU21D;63509;45.250;38.102;2023-04-15T13:52:36;17.55;57.57
74946;HTU21D;63509;45.250;38.102;2023-04-15T13:55:03;17.46;57.83
74946;HTU21D;63509;45.250;38.102;2023-04-15T13:57:30;17.36;58.16
74946;HTU21D;63509;45.250;38.102;2023-04-15T13:59:57;17.33;58.09
74946;HTU21D;63509;45.250;38.102;2023-04-15T14:02:23;17.29;58.21
74946;HTU21D;63509;45.250;38.102;2023-04-15T14:04:49;17.23;58.37
74946;HTU21D;63509;45.250;38.102;2023-04-15T14:07:15;17.19;58.25
74946;HTU21D;63509;45.250;38.102;2023-04-15T14:09:42;17.01;58.93
74946;HTU21D;63509;45.250;38.102;2023-04-15T14:12:09;16.90;58.76
74946;HTU21D;63509;45.250;38.102;2023-04-15T14:14:36;16.77;58.92
74946;HTU21D;63509;45.250;38.102;2023-04-15T14:17:02;16.64;59.17
74946;HTU21D;63509;45.250;38.102;2023-04-15T14:19:30;16.52;59.37
74946;HTU21D;63509;45.250;38.102;2023-04-15T14:21:56;16.40;59.56
74946;HTU21D;63509;45.250;38.102;2023-04-15T14:24:22;16.32;59.66
74946;HTU21D;63509;45.250;38.102;2023-04-15T14:26:48;16.27;59.77
74946;HTU21D;63509;45.250;38.102;2023-04-15T14:29:14;16.22;59.83
74946;HTU21D;63509;45.250;38.102;2023-04-15T14:31:41;16.16;59.93
74946;HTU21D;63509;45.250;38.102;2023-04-15T14:34:10;16.07;60.06
74946;HTU21D;63509;45.250;38.102;2023-04-15T14:36:36;15.99;60.25
74946;HTU21D;63509;45.250;38.102;2023-04-15T14:39:02;15.98;60.30
74946;HTU21D;63509;45.250;38.102;2023-04-15T14:41:29;15.91;60.46
74946;HTU21D;63509;45.250;38.102;2023-04-15T14:43:55;15.82;60.60
74946;HTU21D;63509;45.250;38.102;2023-04-15T14:46:21;15.76;60.76
74946;HTU21D;63509;45.250;38.102;2023-04-15T14:48:48;15.75;60.79
74946;HTU21D;63509;45.250;38.102;2023-04-15T14:51:14;15.74;60.69
74946;HTU21D;63509;45.250;38.102;2023-04-15T14:53:43;15.67;60.73
74946;HTU21D;63509;45.250;38.102;2023-04-15T14:56:10;15.63;60.73
74946;HTU21D;63509;45.250;38.102;2023-04-15T14:58:36;15.60;60.70
74946;HTU21D;63509;45.250;38.102;2023-04-15T15:01:03;15.54;60.72
74946;HTU21D;63509;45.250;38.102;2023-04-15T15:03:29;15.47;60.80
74946;HTU21D;63509;45.250;38.102;2023-04-15T15:05:55;15.42;60.91
74946;HTU21D;63509;45.250;38.102;2023-04-15T15:08:24;15.38;60.93
74946;HTU21D;63509;45.250;38.102;2023-04-15T15:10:50;15.34;61.02
74946;HTU21D;63509;45.250;38.102;2023-04-15T15:13:17;15.30;61.10
74946;HTU21D;63509;45.250;38.102;2023-04-15T15:15:44;15.26;61.19
74946;HTU21D;63509;45.250;38.102;2023-04-15T15:18:10;15.21;61.22
74946;HTU21D;63509;45.250;38.102;2023-04-15T15:20:36;15.16;61.31
74946;HTU21D;63509;45.250;38.102;2023-04-15T15:23:02;15.11;61.35
74946;HTU21D;63509;45.250;38.102;2023-04-15T15:25:27;15.06;61.39